This is the latest recevied weather packets stored in our database for station/object K7SKM. If no packets are shown the sender has not sent any weather packets the latest 10 day(s).
| Time | Temp. | Humidity | Pressure | Rain* | Wind** | Luminosity | Snow |
|---|---|---|---|---|---|---|---|
| 1777935525 | 27.78° C | 38% | 1014 hPa | 0 mm | - | 420 W/m² | - |
| 1777935221 | 27.22° C | 40% | 1014.2 hPa | 0 mm | - | 420 W/m² | - |
| 1777934919 | 27.22° C | 39% | 1014.3 hPa | 0 mm | - | 422 W/m² | - |
| 1777934616 | 28.33° C | 36% | 1014.4 hPa | 0 mm | - | 431 W/m² | - |
| 1777934312 | 27.78° C | 38% | 1014.4 hPa | 0 mm | - | 429 W/m² | - |
| 1777934008 | 27.78° C | 37% | 1014.2 hPa | 0 mm | - | 433 W/m² | - |
| 1777933704 | 27.22° C | 38% | 1014.2 hPa | 0 mm | - | 435 W/m² | - |
| 1777933401 | 26.67° C | 40% | 1014.7 hPa | 0 mm | - | 433 W/m² | - |
| 1777933100 | 28.33° C | 40% | 1014.5 hPa | 0 mm | - | 441 W/m² | - |
| 1777932796 | 27.78° C | 40% | 1014.5 hPa | 0 mm | - | 441 W/m² | - |
| 1777932493 | 27.22° C | 41% | 1014.4 hPa | 0 mm | - | 435 W/m² | - |
| 1777932190 | 26.67° C | 40% | 1014.4 hPa | 0 mm | - | 393 W/m² | - |
| 1777931888 | 26.11° C | 41% | 1014.6 hPa | 0 mm | - | 438 W/m² | - |
| 1777931584 | 27.22° C | 39% | 1014.7 hPa | 0 mm | - | 447 W/m² | - |
| 1777931280 | 27.78° C | 38% | 1014.7 hPa | 0 mm | - | 457 W/m² | - |
| 1777930976 | 27.78° C | 40% | 1014.8 hPa | 0 mm | - | 452 W/m² | - |
| 1777930673 | 26.67° C | 41% | 1014.7 hPa | 0 mm | - | 442 W/m² | - |
| 1777930369 | 25° C | 43% | 1014.6 hPa | 0 mm | - | 439 W/m² | - |
| 1777930067 | 26.11° C | 39% | 1014.9 hPa | 0 mm | - | 452 W/m² | - |
| 1777929763 | 27.22° C | 39% | 1014.9 hPa | 0 mm | - | 452 W/m² | - |
| 1777929461 | 27.78° C | 40% | 1014.7 hPa | 0 mm | - | 435 W/m² | - |
| 1777929156 | 26.67° C | 40% | 1014.8 hPa | 0 mm | - | 444 W/m² | - |
| 1777928854 | 26.11° C | 42% | 1014.9 hPa | 0 mm | - | 444 W/m² | - |
| 1777928551 | 26.67° C | 37% | 1014.8 hPa | 0 mm | - | 441 W/m² | - |
| 1777928248 | 26.11° C | 37% | 1014.9 hPa | 0 mm | - | 351 W/m² | - |
* Rain latest hour (hover to see other rain measurements)
** Current wind speed in m/s (hover to see current wind gust speed)